Time;durP1;ratioP1;P1;durP2;ratioP2;P2;SDS_P1;SDS_P2;PMS_P1;PMS_P2;Temp;Humidity;BMP_temperature;BMP_pressure;BME280_temperature;BME280_humidity;BME280_pressure;Samples;Min_cycle;Max_cycle;Signal;HPM_P1;HPM_P2
2022/11/07 00:02:13;;;;;;;13.68;9.00;;;8.80;99.90;;;;;;5047849;28;20051;-48
2022/11/07 00:04:40;;;;;;;12.40;8.38;;;9.70;99.90;;;;;;5047456;28;20037;-51
2022/11/07 00:07:06;;;;;;;15.07;8.18;;;9.30;99.90;;;;;;5047876;28;20051;-51
2022/11/07 00:09:32;;;;;;;14.95;8.43;;;9.00;99.90;;;;;;5047456;28;20042;-47
2022/11/07 00:11:58;;;;;;;12.10;8.38;;;9.20;99.90;;;;;;5047436;28;20060;-49
2022/11/07 00:14:24;;;;;;;12.65;8.18;;;9.20;99.90;;;;;;5048227;28;20036;-49
2022/11/07 00:16:50;;;;;;;9.32;7.00;;;8.90;99.90;;;;;;5047816;28;20049;-49
2022/11/07 00:19:18;;;;;;;11.93;8.30;;;9.00;99.90;;;;;;5048844;28;20037;-48
2022/11/07 00:21:44;;;;;;;12.43;7.43;;;9.00;99.90;;;;;;5049026;28;20044;-49
2022/11/07 00:24:10;;;;;;;12.75;7.15;;;9.00;99.90;;;;;;5048472;28;20137;-47
2022/11/07 00:26:36;;;;;;;9.73;7.35;;;9.10;99.90;;;;;;5048683;28;20174;-49
2022/11/07 00:29:04;;;;;;;9.85;7.93;;;9.80;99.90;;;;;;5048569;28;20492;-48
2022/11/07 00:31:29;;;;;;;8.68;6.93;;;9.20;99.90;;;;;;5048530;28;20380;-48
2022/11/07 00:33:56;;;;;;;12.65;7.65;;;9.80;99.90;;;;;;5048569;28;20040;-51
2022/11/07 00:36:24;;;;;;;14.27;7.28;;;10.00;99.90;;;;;;5048859;28;20352;-51
2022/11/07 00:38:50;;;;;;;13.00;7.35;;;9.20;99.90;;;;;;5048980;28;20074;-51
2022/11/07 00:41:16;;;;;;;14.27;7.13;;;10.10;99.90;;;;;;5048365;28;20064;-51
2022/11/07 00:43:42;;;;;;;13.25;6.25;;;10.10;99.90;;;;;;5048813;28;20502;-50
2022/11/07 00:46:09;;;;;;;13.95;7.03;;;10.00;99.90;;;;;;5048299;28;20128;-49
2022/11/07 00:48:35;;;;;;;14.15;6.68;;;9.40;99.90;;;;;;5048846;28;20037;-47
2022/11/07 00:51:13;;;;;;;12.07;6.68;;;9.30;99.90;;;;;;5048430;28;20121;-49
2022/11/07 00:53:40;;;;;;;12.35;6.43;;;9.30;99.90;;;;;;5049045;28;20049;-47
2022/11/07 00:56:08;;;;;;;16.13;7.13;;;9.60;99.90;;;;;;5048837;28;20090;-47
2022/11/07 00:58:35;;;;;;;10.45;5.75;;;8.90;99.90;;;;;;5048878;28;20040;-48
2022/11/07 01:01:12;;;;;;;11.20;6.15;;;9.00;99.90;;;;;;5048521;28;20048;-48
2022/11/07 01:06:23;;;;;;;12.38;5.95;;;9.40;99.90;;;;;;5048221;28;20095;-47
2022/11/07 01:08:49;;;;;;;11.93;6.30;;;9.20;99.90;;;;;;5048518;28;20045;-47
2022/11/07 01:11:14;;;;;;;10.18;5.60;;;9.90;99.90;;;;;;5048232;28;20118;-50
2022/11/07 01:13:40;;;;;;;11.98;5.88;;;9.10;99.90;;;;;;5047314;28;20110;-49
2022/11/07 01:16:10;;;;;;;19.80;6.60;;;9.20;99.90;;;;;;5048175;28;20048;-52
2022/11/07 01:18:35;;;;;;;15.13;6.03;;;9.20;99.90;;;;;;5048540;28;20083;-50
2022/11/07 01:21:07;;;;;;;12.88;6.55;;;9.30;99.90;;;;;;5048086;28;20524;-48
2022/11/07 01:23:34;;;;;;;10.63;5.65;;;9.30;99.90;;;;;;5047181;28;20447;-49
2022/11/07 01:26:07;;;;;;;13.32;7.07;;;9.40;99.90;;;;;;5048187;28;20102;-48
2022/11/07 01:28:34;;;;;;;12.40;5.78;;;9.40;99.90;;;;;;5048434;28;20111;-46
2022/11/07 01:31:06;;;;;;;10.07;5.82;;;9.30;99.90;;;;;;5048358;28;20114;-51
2022/11/07 01:33:32;;;;;;;11.32;6.22;;;9.30;99.90;;;;;;5048318;28;20161;-51
2022/11/07 01:36:07;;;;;;;10.32;5.47;;;9.50;99.90;;;;;;5048162;28;20122;-47
2022/11/07 01:38:35;;;;;;;13.90;5.40;;;9.30;99.90;;;;;;5047939;28;20175;-50
2022/11/07 01:44:02;;;;;;;10.88;5.40;;;9.20;99.90;;;;;;5048425;28;20052;-47
2022/11/07 01:46:37;;;;;;;12.73;5.72;;;9.40;99.90;;;;;;5048274;28;20041;-47
2022/11/07 01:49:06;;;;;;;11.88;5.30;;;9.40;99.90;;;;;;5048646;28;20071;-49
2022/11/07 01:51:36;;;;;;;8.70;4.75;;;10.00;99.90;;;;;;5048433;28;20032;-48
2022/11/07 01:54:03;;;;;;;8.40;5.47;;;9.30;99.90;;;;;;5051794;28;20467;-47
2022/11/07 01:56:32;;;;;;;15.27;5.35;;;9.40;99.90;;;;;;5051920;28;20047;-49
2022/11/07 01:58:58;;;;;;;11.43;5.18;;;9.50;99.90;;;;;;5052849;28;20496;-48
2022/11/07 02:01:24;;;;;;;10.13;4.93;;;9.40;99.90;;;;;;5052130;28;20517;-47
2022/11/07 02:03:52;;;;;;;13.38;5.30;;;9.60;99.90;;;;;;5052621;28;20041;-47
2022/11/07 02:06:33;;;;;;;11.93;6.18;;;9.50;99.90;;;;;;5051846;28;20052;-49
2022/11/07 02:08:59;;;;;;;16.00;5.35;;;9.50;99.90;;;;;;5052244;28;20123;-48
2022/11/07 02:11:25;;;;;;;11.60;4.85;;;9.90;99.90;;;;;;5051856;28;20549;-47
2022/11/07 02:13:50;;;;;;;11.52;5.35;;;9.70;99.90;;;;;;5051650;28;20040;-49
2022/11/07 02:16:16;;;;;;;10.52;5.93;;;9.60;99.90;;;;;;5051214;28;20040;-47
2022/11/07 02:18:44;;;;;;;11.18;5.35;;;9.50;99.90;;;;;;5051589;28;20041;-47
2022/11/07 02:21:42;;;;;;;10.82;5.38;;;9.70;99.90;;;;;;5051604;28;20091;-46
2022/11/07 02:24:14;;;;;;;12.75;5.93;;;9.70;99.90;;;;;;5051514;28;20497;-45
2022/11/07 02:26:41;;;;;;;13.83;5.50;;;9.70;99.90;;;;;;5051329;28;20123;-45
2022/11/07 02:29:09;;;;;;;13.02;4.97;;;9.60;99.90;;;;;;5051467;28;20041;-45
2022/11/07 02:31:35;;;;;;;12.98;5.18;;;9.50;99.90;;;;;;5050925;28;20056;-45
2022/11/07 02:34:00;;;;;;;10.57;5.00;;;9.70;99.90;;;;;;5051041;28;20120;-44
2022/11/07 02:36:26;;;;;;;13.18;5.15;;;9.40;99.90;;;;;;5050762;28;20081;-44
2022/11/07 02:38:57;;;;;;;8.50;4.88;;;9.80;99.90;;;;;;5050951;28;20045;-46
2022/11/07 02:41:26;;;;;;;14.48;6.20;;;9.50;99.90;;;;;;5050555;28;20033;-49
2022/11/07 02:43:57;;;;;;;16.63;6.05;;;9.60;99.90;;;;;;5050934;28;20120;-44
2022/11/07 02:46:24;;;;;;;13.43;5.50;;;9.80;99.90;;;;;;5050651;28;20036;-45
2022/11/07 02:48:54;;;;;;;9.10;5.03;;;9.90;99.90;;;;;;5032914;28;20052;-46
2022/11/07 02:51:20;;;;;;;13.50;5.22;;;9.80;99.90;;;;;;5050509;28;20380;-45
2022/11/07 02:53:46;;;;;;;9.23;5.07;;;9.50;99.90;;;;;;5050819;28;20044;-44
2022/11/07 02:56:12;;;;;;;10.27;4.53;;;9.80;99.90;;;;;;5050742;28;20134;-45
2022/11/07 02:58:37;;;;;;;10.18;4.63;;;9.70;99.90;;;;;;5050234;28;20045;-45
2022/11/07 03:01:06;;;;;;;15.93;6.32;;;10.00;99.90;;;;;;5050838;28;20048;-46
2022/11/07 03:03:38;;;;;;;15.75;4.38;;;9.70;99.90;;;;;;5049970;28;20045;-45
2022/11/07 03:06:05;;;;;;;11.98;5.38;;;9.70;99.90;;;;;;5049339;28;20065;-44
2022/11/07 03:08:30;;;;;;;14.93;6.13;;;9.80;99.90;;;;;;5048886;28;20056;-44
2022/11/07 03:10:56;;;;;;;11.38;4.63;;;9.80;99.90;;;;;;5049142;28;20049;-47
2022/11/07 03:13:22;;;;;;;12.07;5.60;;;9.80;99.90;;;;;;5048894;28;20037;-49
2022/11/07 03:15:49;;;;;;;13.50;6.22;;;9.70;99.90;;;;;;5048895;28;20171;-46
2022/11/07 03:18:14;;;;;;;13.13;5.55;;;9.80;99.90;;;;;;5049234;28;20045;-45
2022/11/07 03:20:40;;;;;;;13.15;5.88;;;10.50;99.90;;;;;;5048731;28;20045;-45
2022/11/07 03:23:06;;;;;;;18.55;5.93;;;9.90;99.90;;;;;;5048756;28;20048;-47
2022/11/07 03:25:31;;;;;;;12.43;5.95;;;9.90;99.90;;;;;;5048802;28;20056;-48
2022/11/07 03:27:57;;;;;;;20.42;6.03;;;9.80;99.90;;;;;;5048545;28;20414;-47
2022/11/07 03:30:23;;;;;;;19.02;6.25;;;9.70;99.90;;;;;;5048801;28;20051;-44
2022/11/07 03:32:51;;;;;;;13.77;5.32;;;9.70;99.90;;;;;;5048738;28;20088;-44
2022/11/07 03:35:17;;;;;;;14.05;5.07;;;9.50;99.90;;;;;;5048606;28;20056;-44
2022/11/07 03:37:47;;;;;;;15.60;5.72;;;9.80;99.90;;;;;;5048311;28;20121;-44
2022/11/07 03:40:13;;;;;;;14.73;5.03;;;9.40;99.90;;;;;;5048633;28;20040;-44
2022/11/07 03:42:43;;;;;;;12.10;5.97;;;9.90;99.90;;;;;;5048669;28;20132;-45
2022/11/07 03:45:10;;;;;;;12.25;5.05;;;9.20;99.90;;;;;;5048693;28;20534;-44
2022/11/07 03:47:38;;;;;;;16.20;6.18;;;9.30;99.90;;;;;;5048378;28;20371;-45
2022/11/07 03:50:04;;;;;;;15.48;6.07;;;9.10;99.90;;;;;;5048830;28;20390;-45
2022/11/07 03:52:30;;;;;;;11.45;6.05;;;9.30;99.90;;;;;;5048331;28;20148;-44
2022/11/07 03:54:56;;;;;;;17.08;5.65;;;9.10;99.90;;;;;;5048654;28;20125;-45
2022/11/07 03:57:21;;;;;;;17.85;6.13;;;9.20;99.90;;;;;;5048206;28;20052;-45
2022/11/07 03:59:47;;;;;;;16.60;5.80;;;9.10;99.90;;;;;;5048325;28;20087;-45
2022/11/07 04:02:13;;;;;;;14.27;6.30;;;10.10;99.90;;;;;;5048495;28;20115;-45
2022/11/07 04:04:38;;;;;;;16.30;6.83;;;9.10;99.90;;;;;;5009779;28;1095010;-44
2022/11/07 04:07:04;;;;;;;19.80;5.30;;;9.10;99.90;;;;;;5049129;28;20052;-44
2022/11/07 04:09:30;;;;;;;19.08;6.30;;;9.00;99.90;;;;;;5047277;28;20055;-44
2022/11/07 04:17:25;;;;;;;12.52;5.28;;;9.20;99.90;;;;;;5048646;28;20141;-44
2022/11/07 04:19:54;;;;;;;18.45;6.03;;;9.70;99.90;;;;;;5048600;28;20102;-45
2022/11/07 04:22:20;;;;;;;12.32;5.20;;;9.40;99.90;;;;;;5048848;28;20053;-46
2022/11/07 04:24:46;;;;;;;18.88;5.88;;;9.40;99.90;;;;;;5048665;28;20041;-45
2022/11/07 04:29:58;;;;;;;12.02;4.97;;;9.40;99.90;;;;;;5048828;28;20056;-44
2022/11/07 04:32:24;;;;;;;16.65;6.30;;;10.20;99.90;;;;;;5048775;28;20700;-45
2022/11/07 04:34:50;;;;;;;16.48;6.10;;;9.20;99.90;;;;;;5048315;28;20517;-45
2022/11/07 04:37:17;;;;;;;15.90;6.10;;;9.90;99.90;;;;;;5047468;28;20036;-45
2022/11/07 04:39:43;;;;;;;12.85;5.22;;;9.10;99.90;;;;;;5048554;28;20044;-45
2022/11/07 04:42:09;;;;;;;20.95;5.82;;;9.40;99.90;;;;;;5048689;28;20073;-45
2022/11/07 04:44:35;;;;;;;26.00;6.90;;;10.00;99.90;;;;;;5048141;28;20736;-45
2022/11/07 04:47:00;;;;;;;17.80;6.47;;;9.20;99.90;;;;;;5048122;28;20132;-44
2022/11/07 04:49:26;;;;;;;20.35;5.68;;;9.70;99.90;;;;;;5048509;28;20044;-44
2022/11/07 04:51:56;;;;;;;16.17;5.85;;;8.90;99.90;;;;;;5048373;28;20716;-47
2022/11/07 04:54:22;;;;;;;18.73;5.93;;;8.90;99.90;;;;;;5046993;28;20092;-44
2022/11/07 04:56:47;;;;;;;19.00;6.35;;;9.50;99.90;;;;;;5048138;28;20040;-44
2022/11/07 04:59:13;;;;;;;18.67;5.65;;;9.10;99.90;;;;;;5048219;28;20041;-45
2022/11/07 05:01:39;;;;;;;19.80;7.13;;;10.00;99.90;;;;;;5048581;28;20039;-44
2022/11/07 05:04:04;;;;;;;17.05;6.97;;;9.20;99.90;;;;;;5048777;28;20072;-45
2022/11/07 05:06:34;;;;;;;18.05;7.03;;;9.30;99.90;;;;;;5048147;28;20064;-48
2022/11/07 05:09:00;;;;;;;19.63;6.07;;;9.30;99.90;;;;;;5048427;28;20041;-46
2022/11/07 05:11:26;;;;;;;13.13;6.28;;;9.40;99.90;;;;;;5048869;28;20049;-44
2022/11/07 05:13:51;;;;;;;13.65;6.82;;;9.40;99.90;;;;;;5048180;28;20045;-46
2022/11/07 05:16:17;;;;;;;13.43;5.70;;;9.40;99.90;;;;;;5047858;28;20098;-45
2022/11/07 05:18:43;;;;;;;20.50;6.38;;;9.30;99.90;;;;;;5048094;28;20422;-44
2022/11/07 05:21:09;;;;;;;16.63;6.47;;;9.40;99.90;;;;;;5048095;28;20064;-47
2022/11/07 05:23:35;;;;;;;14.48;6.03;;;9.40;99.90;;;;;;5048171;28;20482;-46
2022/11/07 05:26:00;;;;;;;13.95;6.10;;;10.10;99.90;;;;;;5048202;28;20076;-44
2022/11/07 05:28:29;;;;;;;20.92;6.93;;;10.00;99.90;;;;;;5048264;28;20815;-45
2022/11/07 05:30:59;;;;;;;17.52;6.70;;;9.30;99.90;;;;;;5048081;28;20063;-44
2022/11/07 05:33:26;;;;;;;15.55;6.90;;;9.30;99.90;;;;;;5048125;28;20668;-45
2022/11/07 05:35:51;;;;;;;14.52;6.57;;;9.20;99.90;;;;;;5047904;28;20081;-44
2022/11/07 05:38:17;;;;;;;18.98;7.07;;;9.00;99.90;;;;;;5047079;28;20088;-45
2022/11/07 05:40:43;;;;;;;19.80;7.32;;;9.20;99.90;;;;;;5048380;28;20072;-47
2022/11/07 05:43:11;;;;;;;14.63;5.97;;;8.90;99.90;;;;;;5048166;28;20130;-45
2022/11/07 05:45:37;;;;;;;15.90;6.68;;;9.30;99.90;;;;;;5048087;28;20111;-46
2022/11/07 05:48:11;;;;;;;19.35;7.45;;;9.20;99.90;;;;;;5047670;28;20124;-45
2022/11/07 05:50:38;;;;;;;15.20;6.28;;;9.30;99.90;;;;;;5047762;28;20454;-45
2022/11/07 05:53:04;;;;;;;17.85;6.82;;;9.30;99.90;;;;;;5047433;28;20045;-46
2022/11/07 05:55:30;;;;;;;15.88;7.07;;;9.20;99.90;;;;;;5047584;28;20053;-47
2022/11/07 05:57:56;;;;;;;19.25;8.38;;;9.30;99.90;;;;;;5047410;28;20112;-45
2022/11/07 06:00:22;;;;;;;14.85;6.80;;;9.10;99.90;;;;;;5047181;28;20253;-45
2022/11/07 06:02:55;;;;;;;16.08;6.80;;;9.60;99.90;;;;;;5046607;28;20067;-45
2022/11/07 06:05:21;;;;;;;11.05;6.13;;;9.40;99.90;;;;;;5045527;28;20494;-45
2022/11/07 06:07:47;;;;;;;17.67;6.68;;;9.30;99.90;;;;;;5047732;28;20041;-47
2022/11/07 06:10:13;;;;;;;12.88;6.07;;;9.80;99.90;;;;;;5047378;28;20384;-45
2022/11/07 06:12:38;;;;;;;13.40;6.88;;;9.30;99.90;;;;;;5047240;28;20135;-45
2022/11/07 06:15:05;;;;;;;14.98;6.22;;;9.30;99.90;;;;;;5047278;28;20045;-44
2022/11/07 06:17:30;;;;;;;14.73;6.20;;;9.30;99.90;;;;;;5047463;28;20120;-45
2022/11/07 06:19:56;;;;;;;19.05;5.95;;;9.30;99.90;;;;;;5047216;28;20570;-45
2022/11/07 06:22:24;;;;;;;17.75;6.25;;;9.40;99.90;;;;;;5047513;28;20116;-45
2022/11/07 06:24:49;;;;;;;16.48;6.15;;;9.30;99.90;;;;;;5047642;28;20045;-45
2022/11/07 06:27:15;;;;;;;18.23;7.75;;;9.00;99.90;;;;;;5047780;28;20049;-46
2022/11/07 06:29:41;;;;;;;10.15;5.55;;;9.10;99.90;;;;;;5047797;28;20044;-46
2022/11/07 06:32:06;;;;;;;19.90;5.90;;;9.80;99.90;;;;;;5047176;28;20049;-45
2022/11/07 06:34:32;;;;;;;13.23;6.15;;;9.20;99.90;;;;;;5047489;28;20041;-44
2022/11/07 06:36:58;;;;;;;17.52;6.95;;;9.20;99.90;;;;;;5047218;28;20098;-44
2022/11/07 06:39:23;;;;;;;14.18;6.35;;;9.10;99.90;;;;;;5047860;28;20044;-45
2022/11/07 06:41:49;;;;;;;16.92;7.43;;;9.40;99.90;;;;;;5050664;28;20051;-44
2022/11/07 06:44:15;;;;;;;17.23;6.50;;;9.30;99.90;;;;;;5032894;28;20049;-45
2022/11/07 06:46:41;;;;;;;19.05;8.13;;;9.30;99.90;;;;;;5049504;28;20094;-45
2022/11/07 06:49:07;;;;;;;19.73;6.97;;;9.40;99.90;;;;;;5050347;28;20040;-44
2022/11/07 06:51:32;;;;;;;17.58;7.80;;;9.50;99.90;;;;;;5050464;28;20045;-44
2022/11/07 06:53:58;;;;;;;14.77;7.13;;;9.60;99.90;;;;;;5050636;28;20045;-44
2022/11/07 06:56:24;;;;;;;14.77;7.10;;;9.50;99.90;;;;;;5051008;28;20122;-44
2022/11/07 06:58:50;;;;;;;22.33;8.40;;;9.50;99.90;;;;;;5050518;28;20047;-45
2022/11/07 07:01:15;;;;;;;18.15;8.35;;;10.30;99.90;;;;;;5050404;28;20045;-45
2022/11/07 07:03:42;;;;;;;20.40;8.60;;;9.60;99.90;;;;;;5050339;28;20047;-44
2022/11/07 07:06:15;;;;;;;22.08;9.15;;;9.70;99.90;;;;;;5050363;28;20131;-45
2022/11/07 07:08:42;;;;;;;20.27;9.25;;;9.50;99.90;;;;;;5050547;28;20055;-45
2022/11/07 07:11:10;;;;;;;27.50;10.82;;;9.70;99.90;;;;;;5050245;28;20540;-44
2022/11/07 07:13:36;;;;;;;21.58;10.55;;;9.60;99.90;;;;;;5050339;28;20073;-44
2022/11/07 07:16:02;;;;;;;19.02;10.18;;;9.80;99.90;;;;;;5050105;28;20080;-45
2022/11/07 07:18:28;;;;;;;19.33;10.05;;;9.90;99.90;;;;;;5050226;28;20045;-45
2022/11/07 07:21:05;;;;;;;20.65;9.65;;;9.70;99.90;;;;;;5050038;28;20064;-45
2022/11/07 07:23:33;;;;;;;25.63;9.32;;;9.70;99.90;;;;;;5050405;28;20040;-45
2022/11/07 07:25:59;;;;;;;17.17;9.68;;;9.90;99.90;;;;;;5050157;28;20052;-45
2022/11/07 07:28:25;;;;;;;22.95;10.30;;;10.20;99.90;;;;;;5050559;28;20159;-44
2022/11/07 07:30:52;;;;;;;24.30;9.82;;;10.20;99.90;;;;;;5050351;28;20140;-46
2022/11/07 07:33:17;;;;;;;19.42;9.98;;;9.90;99.90;;;;;;5050407;28;20053;-46
2022/11/07 07:35:43;;;;;;;24.90;10.98;;;10.20;99.90;;;;;;5050443;28;20048;-44
2022/11/07 07:38:10;;;;;;;35.08;12.27;;;10.50;99.90;;;;;;5049824;28;20033;-45
2022/11/07 07:40:36;;;;;;;27.08;10.90;;;10.70;99.90;;;;;;5048070;28;20091;-45
2022/11/07 07:43:01;;;;;;;26.02;10.18;;;10.50;99.90;;;;;;5049802;28;20040;-45
2022/11/07 07:45:27;;;;;;;23.98;11.27;;;10.30;99.90;;;;;;5049290;28;20045;-45
2022/11/07 07:47:59;;;;;;;26.42;10.10;;;10.50;99.90;;;;;;5049537;28;20065;-45
2022/11/07 07:50:24;;;;;;;32.10;9.55;;;10.40;99.90;;;;;;5047863;28;20114;-45
2022/11/07 07:52:56;;;;;;;28.27;9.52;;;10.40;99.90;;;;;;5049044;28;20045;-45
2022/11/07 07:55:22;;;;;;;23.90;9.50;;;10.30;99.90;;;;;;5048472;28;20490;-44
2022/11/07 07:57:47;;;;;;;28.48;9.50;;;11.10;99.90;;;;;;5048817;28;20048;-45
2022/11/07 08:00:13;;;;;;;21.77;9.07;;;10.70;99.90;;;;;;5048984;28;20040;-44
2022/11/07 08:02:42;;;;;;;27.98;9.82;;;10.50;99.90;;;;;;5048985;28;20562;-44
2022/11/07 08:05:09;;;;;;;17.85;8.40;;;10.90;99.90;;;;;;5049074;28;20112;-45
2022/11/07 08:07:35;;;;;;;28.13;8.65;;;10.50;99.90;;;;;;5048689;28;20060;-46
2022/11/07 08:10:01;;;;;;;28.15;8.82;;;10.50;99.90;;;;;;5048843;28;20546;-44
2022/11/07 08:12:26;;;;;;;16.30;7.40;;;10.30;99.90;;;;;;5048931;28;20080;-46
2022/11/07 08:14:52;;;;;;;22.38;7.75;;;10.80;99.90;;;;;;5048948;28;20434;-47
2022/11/07 08:17:17;;;;;;;28.65;8.15;;;10.30;99.90;;;;;;5048615;28;20052;-45
2022/11/07 08:19:43;;;;;;;23.13;7.78;;;10.60;99.90;;;;;;5048651;28;20040;-45
2022/11/07 08:22:10;;;;;;;19.50;7.88;;;10.50;99.90;;;;;;5048757;28;20075;-46
2022/11/07 08:24:35;;;;;;;17.13;7.32;;;10.70;99.90;;;;;;5048700;28;20076;-45
2022/11/07 08:27:01;;;;;;;16.55;6.60;;;10.70;99.90;;;;;;5047685;28;20080;-46
2022/11/07 08:29:27;;;;;;;16.33;7.47;;;10.50;99.90;;;;;;5048179;28;20048;-46
2022/11/07 08:31:52;;;;;;;24.75;6.47;;;10.70;99.90;;;;;;5048429;28;20044;-50
2022/11/07 08:34:18;;;;;;;24.05;8.35;;;10.70;99.90;;;;;;5046006;28;20573;-45
2022/11/07 08:36:44;;;;;;;20.35;6.80;;;10.60;99.90;;;;;;5065845;28;20044;-48
2022/11/07 08:39:09;;;;;;;30.65;7.40;;;11.40;99.90;;;;;;5065929;28;20044;-47
2022/11/07 08:41:35;;;;;;;22.00;6.88;;;11.00;99.90;;;;;;5065378;28;20405;-45
2022/11/07 08:44:01;;;;;;;21.77;7.03;;;10.90;99.90;;;;;;5065634;28;20466;-46
2022/11/07 08:46:26;;;;;;;25.05;7.63;;;11.30;99.90;;;;;;5065115;28;20049;-47
2022/11/07 08:48:52;;;;;;;15.77;6.95;;;11.40;99.90;;;;;;5065574;28;20055;-47
2022/11/07 08:51:17;;;;;;;17.77;6.75;;;11.10;99.90;;;;;;5065441;28;20044;-46
2022/11/07 08:53:43;;;;;;;21.27;6.65;;;11.20;99.90;;;;;;5065293;28;20040;-46
2022/11/07 08:56:09;;;;;;;14.98;5.55;;;11.30;99.90;;;;;;5064955;28;20049;-46
2022/11/07 08:58:35;;;;;;;17.70;5.47;;;11.40;99.90;;;;;;5065047;28;20086;-46
2022/11/07 09:01:07;;;;;;;15.32;5.72;;;11.30;99.90;;;;;;5064969;28;20094;-47
2022/11/07 09:03:35;;;;;;;18.65;5.18;;;11.50;99.90;;;;;;5065444;28;20123;-46
2022/11/07 09:06:01;;;;;;;17.95;6.13;;;11.50;99.90;;;;;;5065176;28;20215;-49
2022/11/07 09:08:27;;;;;;;15.80;4.47;;;11.50;99.90;;;;;;5065059;28;20098;-48
2022/11/07 09:10:52;;;;;;;15.60;5.18;;;11.50;99.90;;;;;;5063936;28;20509;-46
2022/11/07 09:13:19;;;;;;;22.50;4.72;;;11.60;99.90;;;;;;5065239;28;20036;-48
2022/11/07 09:15:45;;;;;;;14.85;4.93;;;11.60;99.90;;;;;;5064548;28;20569;-48
2022/11/07 09:18:11;;;;;;;15.95;4.40;;;11.70;99.90;;;;;;5064766;28;20044;-48
2022/11/07 09:20:36;;;;;;;20.55;4.82;;;11.60;99.90;;;;;;5065022;28;20036;-45
2022/11/07 09:23:02;;;;;;;18.55;4.90;;;12.10;99.90;;;;;;5065535;28;20503;-47
2022/11/07 09:25:28;;;;;;;16.58;4.30;;;11.70;99.90;;;;;;5064859;28;20510;-47
2022/11/07 09:27:54;;;;;;;18.23;4.93;;;11.70;99.90;;;;;;5065194;28;20037;-48
2022/11/07 09:30:21;;;;;;;21.73;4.88;;;11.70;99.90;;;;;;5065133;28;20098;-46
2022/11/07 09:32:47;;;;;;;15.57;5.25;;;11.70;99.90;;;;;;5065254;28;20094;-46
2022/11/07 09:35:13;;;;;;;15.15;4.05;;;11.60;99.90;;;;;;5050269;28;20059;-45
2022/11/07 09:37:42;;;;;;;19.45;4.68;;;11.70;99.90;;;;;;5044448;28;20131;-46
2022/11/07 09:40:23;;;;;;;19.35;5.03;;;11.60;99.90;;;;;;5044893;28;20044;-48
2022/11/07 09:43:10;;;;;;;13.18;4.53;;;11.60;99.90;;;;;;5044923;28;20045;-49
2022/11/07 09:45:53;;;;;;;13.70;4.03;;;11.60;99.90;;;;;;5044942;28;20228;-48
2022/11/07 09:48:24;;;;;;;17.60;4.88;;;9.50;99.90;;;;;;5044759;28;20083;-47
2022/11/07 09:50:51;;;;;;;13.40;4.47;;;11.30;99.90;;;;;;5043546;28;20772;-46
2022/11/07 09:53:31;;;;;;;16.70;4.45;;;11.60;99.90;;;;;;5044953;28;20041;-46
2022/11/07 09:56:03;;;;;;;14.73;5.25;;;11.30;99.90;;;;;;5045047;28;20123;-47
2022/11/07 09:58:33;;;;;;;15.32;5.05;;;11.20;99.90;;;;;;5044727;28;20139;-47
2022/11/07 10:01:02;;;;;;;18.42;4.85;;;11.40;99.90;;;;;;5044609;28;20041;-49
2022/11/07 10:03:28;;;;;;;17.90;5.15;;;11.60;99.90;;;;;;5044648;28;20063;-48
2022/11/07 10:06:27;;;;;;;20.75;6.72;;;11.50;99.90;;;;;;5045022;28;20068;-49
2022/11/07 10:08:59;;;;;;;17.52;5.25;;;11.60;99.90;;;;;;5044538;28;20037;-46
2022/11/07 10:11:27;;;;;;;18.27;4.90;;;11.70;99.90;;;;;;5044629;28;20132;-47
2022/11/07 10:14:12;;;;;;;14.60;4.80;;;11.70;99.90;;;;;;5045589;28;20044;-48
2022/11/07 10:16:46;;;;;;;17.05;4.80;;;11.80;99.90;;;;;;5047911;28;20124;-47
2022/11/07 10:19:27;;;;;;;16.08;4.63;;;11.70;99.90;;;;;;5048199;28;20053;-47
2022/11/07 10:22:23;;;;;;;18.08;4.97;;;11.70;99.90;;;;;;5047693;28;20076;-49
2022/11/07 10:25:20;;;;;;;15.13;5.25;;;11.70;99.90;;;;;;5042828;28;20076;-47
2022/11/07 10:28:07;;;;;;;12.30;4.38;;;11.70;99.90;;;;;;5045846;28;20048;-42
2022/11/07 10:30:33;;;;;;;19.27;5.30;;;11.80;99.90;;;;;;5047108;28;20047;-49
2022/11/07 10:33:37;;;;;;;18.05;5.85;;;11.80;99.90;;;;;;5046864;28;20055;-45
2022/11/07 10:36:24;;;;;;;15.88;4.65;;;12.00;99.90;;;;;;5021366;28;20053;-47
2022/11/07 10:38:50;;;;;;;17.23;5.50;;;12.10;99.90;;;;;;5047119;28;20083;-52
2022/11/07 10:41:24;;;;;;;20.90;5.18;;;12.20;99.90;;;;;;5048869;28;20722;-40
2022/11/07 10:44:06;;;;;;;16.33;5.78;;;12.30;99.90;;;;;;5047398;28;20178;-39
2022/11/07 10:46:42;;;;;;;16.20;4.90;;;12.40;99.90;;;;;;5047318;28;20130;-44
2022/11/07 10:49:17;;;;;;;12.65;5.22;;;12.60;99.90;;;;;;5047113;28;20120;-41
2022/11/07 10:51:43;;;;;;;18.77;4.70;;;12.70;99.90;;;;;;5046723;28;20060;-41
2022/11/07 10:54:20;;;;;;;11.75;4.65;;;12.90;99.90;;;;;;5046773;28;20051;-42
2022/11/07 10:57:08;;;;;;;15.23;4.57;;;13.00;99.90;;;;;;5046344;28;20060;-44
2022/11/07 10:59:38;;;;;;;13.40;4.05;;;13.10;99.90;;;;;;5046995;28;20049;-42
2022/11/07 11:02:21;;;;;;;13.32;4.18;;;13.20;99.90;;;;;;5047352;28;20040;-44
2022/11/07 11:05:11;;;;;;;12.63;3.63;;;13.20;99.90;;;;;;5046849;28;20037;-43
2022/11/07 11:07:39;;;;;;;8.85;3.60;;;13.20;99.90;;;;;;5037605;28;20049;-44
2022/11/07 11:10:20;;;;;;;15.10;3.72;;;13.10;99.90;;;;;;5046409;28;20115;-42
2022/11/07 11:12:47;;;;;;;14.65;3.83;;;13.10;99.90;;;;;;5046170;28;20052;-47
2022/11/07 11:15:21;;;;;;;14.60;3.95;;;13.00;99.90;;;;;;5046508;28;20052;-42
2022/11/07 11:18:01;;;;;;;13.00;3.40;;;13.10;99.90;;;;;;5046782;28;20474;-43
2022/11/07 11:20:35;;;;;;;11.82;3.53;;;13.20;99.90;;;;;;5045614;28;20088;-45
2022/11/07 11:23:05;;;;;;;10.13;3.45;;;13.30;99.90;;;;;;5044910;28;20106;-43
2022/11/07 11:25:41;;;;;;;11.45;3.72;;;13.50;99.90;;;;;;5045898;28;20513;-43
2022/11/07 11:28:13;;;;;;;13.82;3.45;;;13.80;99.90;;;;;;5046625;28;20051;-43
2022/11/07 11:30:40;;;;;;;10.02;3.20;;;13.40;99.90;;;;;;5046006;28;20106;-40
2022/11/07 11:33:18;;;;;;;14.02;3.13;;;13.50;99.90;;;;;;5044986;28;20157;-41
2022/11/07 11:35:53;;;;;;;14.98;3.63;;;13.60;99.90;;;;;;5036897;28;20060;-39
2022/11/07 11:38:29;;;;;;;7.93;2.85;;;13.70;99.90;;;;;;5045517;28;20048;-43
2022/11/07 11:41:00;;;;;;;11.38;2.95;;;13.80;99.90;;;;;;5045571;28;20066;-48
2022/11/07 11:43:37;;;;;;;12.02;2.63;;;13.80;99.90;;;;;;5046312;28;20127;-41
2022/11/07 11:46:09;;;;;;;8.70;3.05;;;13.70;99.90;;;;;;5044374;28;20081;-43
2022/11/07 11:49:07;;;;;;;11.85;2.70;;;13.70;99.90;;;;;;5045901;28;20055;-41
2022/11/07 11:51:44;;;;;;;10.35;2.67;;;13.60;99.90;;;;;;5045915;28;20044;-40
2022/11/07 11:54:13;;;;;;;11.27;2.22;;;13.70;99.90;;;;;;5045847;28;20044;-40
2022/11/07 11:57:14;;;;;;;10.40;2.13;;;13.70;99.90;;;;;;5045522;28;20049;-40
2022/11/07 12:00:07;;;;;;;11.57;2.60;;;13.80;99.90;;;;;;4983406;28;20045;-40
2022/11/07 12:02:46;;;;;;;9.35;2.53;;;15.80;99.90;;;;;;5043657;28;20880;-38
2022/11/07 12:05:45;;;;;;;8.95;2.47;;;13.70;99.90;;;;;;5046378;28;20060;-38
2022/11/07 12:08:14;;;;;;;13.48;2.00;;;13.60;99.90;;;;;;5046255;28;20064;-38
2022/11/07 12:11:05;;;;;;;8.73;2.35;;;13.60;99.90;;;;;;5046283;28;20053;-38
2022/11/07 12:13:56;;;;;;;10.13;1.60;;;13.60;99.90;;;;;;5046460;28;20589;-38
2022/11/07 12:16:45;;;;;;;10.40;2.00;;;13.60;99.90;;;;;;5046422;28;20053;-38
2022/11/07 12:19:38;;;;;;;10.45;1.67;;;13.60;99.90;;;;;;5046047;28;20486;-38
2022/11/07 12:22:12;;;;;;;14.30;3.03;;;13.60;99.90;;;;;;5042790;28;20056;-38
2022/11/07 12:25:22;;;;;;;6.88;2.65;;;13.60;99.90;;;;;;5046112;28;20040;-38
2022/11/07 12:28:09;;;;;;;11.18;3.22;;;13.50;99.90;;;;;;5042601;28;20060;-38
2022/11/07 12:31:01;;;;;;;12.07;2.00;;;13.50;99.90;;;;;;5045923;28;20621;-38
2022/11/07 12:33:50;;;;;;;11.13;2.25;;;13.40;99.90;;;;;;5045822;28;20593;-38
2022/11/07 12:36:38;;;;;;;10.38;2.13;;;13.40;99.90;;;;;;5019648;28;20061;-38
2022/11/07 12:39:39;;;;;;;8.43;1.60;;;13.30;99.90;;;;;;5045666;28;20054;-38
2022/11/07 12:42:26;;;;;;;7.63;2.17;;;13.40;99.90;;;;;;5045581;28;20719;-38
2022/11/07 12:45:23;;;;;;;6.38;1.77;;;13.40;99.90;;;;;;5045298;28;20148;-38
2022/11/07 12:48:07;;;;;;;13.20;2.70;;;13.50;99.90;;;;;;5045505;28;20132;-38
2022/11/07 12:50:38;;;;;;;10.57;2.70;;;13.60;99.90;;;;;;5045454;28;20045;-38
2022/11/07 12:53:15;;;;;;;11.18;2.63;;;13.80;99.90;;;;;;5045324;28;20875;-39
2022/11/07 12:55:43;;;;;;;11.43;2.53;;;13.90;99.90;;;;;;5046106;28;20140;-39
2022/11/07 12:58:20;;;;;;;9.10;2.63;;;13.80;99.90;;;;;;5045088;28;20043;-38
2022/11/07 13:00:48;;;;;;;10.25;2.88;;;13.80;99.90;;;;;;5045264;28;20041;-38
2022/11/07 13:03:46;;;;;;;8.25;2.38;;;13.70;99.90;;;;;;5045256;28;20570;-38
2022/11/07 13:06:42;;;;;;;9.90;2.38;;;13.70;99.90;;;;;;5011143;28;20514;-38
2022/11/07 13:09:35;;;;;;;9.65;2.30;;;13.60;99.90;;;;;;5045531;28;20053;-38
2022/11/07 13:12:09;;;;;;;;;;;13.60;99.90;;;;;;5046117;28;20052;-38
2022/11/07 13:14:40;;;;;;;9.40;2.17;;;13.60;99.90;;;;;;5045745;28;19931;-38